createdAt,value
2022-11-25T14:57:41.943Z,6.00
2022-11-25T15:00:17.666Z,5.60
2022-11-25T15:03:08.796Z,5.10
2022-11-25T15:05:40.109Z,6.00
2022-11-25T15:08:08.540Z,5.80
2022-11-25T15:10:49.753Z,5.60
2022-11-25T15:13:34.600Z,6.60
2022-11-25T15:16:24.008Z,6.80
2022-11-25T15:18:56.473Z,7.60
2022-11-25T15:21:31.935Z,8.10
2022-11-25T15:24:01.904Z,8.00
2022-11-25T15:26:33.192Z,10.70
2022-11-25T15:29:10.818Z,10.30
2022-11-25T15:31:42.271Z,13.50
2022-11-25T15:34:16.003Z,10.20
2022-11-25T15:36:49.775Z,10.20
2022-11-25T15:39:30.908Z,16.70
2022-11-25T15:42:15.621Z,14.40
2022-11-25T15:44:51.866Z,14.00
2022-11-25T15:47:29.267Z,12.60
2022-11-25T15:50:19.860Z,11.40
2022-11-25T15:52:58.743Z,10.20
2022-11-25T15:55:37.101Z,9.40
2022-11-25T15:58:19.819Z,10.70
2022-11-25T16:01:05.374Z,13.30
2022-11-25T16:03:35.652Z,18.80
2022-11-25T16:06:26.725Z,14.90
2022-11-25T16:11:33.712Z,10.10
2022-11-25T16:14:28.456Z,10.00
2022-11-25T16:17:11.550Z,8.10
2022-11-25T16:19:47.152Z,10.40
2022-11-25T16:22:19.019Z,11.40
2022-11-25T16:24:57.228Z,11.20
2022-11-25T16:27:29.608Z,11.10
2022-11-25T16:30:11.958Z,11.40
2022-11-25T16:32:40.739Z,14.50
2022-11-25T16:35:19.408Z,14.20
2022-11-25T16:37:49.496Z,12.80
2022-11-25T16:40:24.142Z,12.90
2022-11-25T16:42:54.848Z,13.20
2022-11-25T16:45:29.626Z,11.70
2022-11-25T16:47:58.012Z,11.50
2022-11-25T16:50:28.516Z,11.40
2022-11-25T16:52:57.186Z,11.70
2022-11-25T16:55:25.879Z,11.70
2022-11-25T16:57:54.575Z,10.30
2022-11-25T17:00:22.974Z,10.00
2022-11-25T17:02:51.409Z,13.20
2022-11-25T17:05:25.555Z,10.30
2022-11-25T17:07:53.928Z,11.80
2022-11-25T17:10:22.748Z,13.50
2022-11-25T17:12:51.213Z,11.40
2022-11-25T17:15:30.717Z,12.30
2022-11-25T17:18:01.238Z,11.80
2022-11-25T17:20:29.641Z,12.20
2022-11-25T17:22:59.501Z,10.80
2022-11-25T17:25:35.268Z,9.20
2022-11-25T17:28:10.365Z,9.30
2022-11-25T17:30:44.956Z,9.20
2022-11-25T17:33:19.621Z,8.90
2022-11-25T17:35:47.949Z,8.50
2022-11-25T17:38:26.329Z,9.10
2022-11-25T17:40:54.993Z,7.90
2022-11-25T17:43:24.545Z,9.00
2022-11-25T17:45:52.885Z,9.60
2022-11-25T17:48:21.209Z,9.10
2022-11-25T17:50:50.719Z,9.20
2022-11-25T17:53:24.524Z,9.90
2022-11-25T17:55:57.116Z,9.50
2022-11-25T17:58:30.042Z,9.50
2022-11-25T18:00:59.765Z,11.60
2022-11-25T18:03:28.132Z,11.20
2022-11-25T18:05:57.728Z,9.90
2022-11-25T18:08:27.395Z,9.40
2022-11-25T18:11:01.131Z,11.80
2022-11-25T18:13:39.054Z,10.40
2022-11-25T18:16:11.292Z,10.00
2022-11-25T18:18:40.596Z,10.10
2022-11-25T18:21:09.608Z,10.10
2022-11-25T18:23:37.975Z,10.00
2022-11-25T18:26:06.822Z,10.90
2022-11-25T18:28:35.139Z,9.30
2022-11-25T18:31:05.583Z,9.60
2022-11-25T18:33:34.779Z,10.10
2022-11-25T18:36:03.290Z,10.90
2022-11-25T18:38:31.646Z,10.70
2022-11-25T18:41:01.707Z,10.40
2022-11-25T18:43:30.358Z,10.80
2022-11-25T18:45:59.642Z,11.90
2022-11-25T18:48:28.107Z,11.90
2022-11-25T18:50:57.670Z,10.10
2022-11-25T18:53:26.037Z,9.70
2022-11-25T18:55:54.689Z,11.90
2022-11-25T18:58:27.279Z,10.80
2022-11-25T19:01:03.281Z,10.10
2022-11-25T19:03:32.167Z,9.40
2022-11-25T19:06:01.845Z,10.40
2022-11-25T19:08:32.606Z,10.00
2022-11-25T19:11:03.820Z,9.10
2022-11-25T19:13:38.334Z,10.30
2022-11-25T19:16:12.827Z,11.40
2022-11-25T19:18:46.034Z,11.30
2022-11-25T19:21:19.298Z,10.00
2022-11-25T19:23:48.153Z,11.40
2022-11-25T19:26:50.308Z,13.50
2022-11-25T19:29:22.246Z,12.50
2022-11-25T19:31:54.303Z,10.10
2022-11-25T19:34:44.425Z,10.20
2022-11-25T19:37:17.951Z,12.50
2022-11-25T19:39:50.581Z,13.50
2022-11-25T19:42:19.740Z,15.50
2022-11-25T19:44:48.193Z,19.20
2022-11-25T19:47:21.173Z,16.30
2022-11-25T19:49:53.183Z,19.20
2022-11-25T19:52:27.063Z,20.00
2022-11-25T19:54:58.417Z,18.80
2022-11-25T19:57:27.762Z,21.00
2022-11-25T19:59:56.066Z,25.60
2022-11-25T20:02:26.709Z,22.60
2022-11-25T20:04:57.143Z,18.80
2022-11-25T20:07:27.448Z,17.40
2022-11-25T20:10:03.868Z,18.90
2022-11-25T20:12:40.548Z,16.20
2022-11-25T20:15:10.578Z,17.00
2022-11-25T20:17:45.868Z,17.70
2022-11-25T20:20:25.930Z,15.60
2022-11-25T20:23:14.219Z,16.50
2022-11-25T20:25:48.093Z,14.80
2022-11-25T20:28:20.819Z,15.50
2022-11-25T20:30:53.147Z,14.00
2022-11-25T20:33:24.662Z,17.20
2022-11-25T20:36:07.553Z,12.50
2022-11-25T20:38:37.160Z,10.60
2022-11-25T20:41:06.664Z,9.10
2022-11-25T20:43:41.712Z,12.30
2022-11-25T20:46:30.782Z,10.50
2022-11-25T20:49:02.483Z,8.40
2022-11-25T20:51:31.512Z,9.30
2022-11-25T20:54:01.490Z,9.10
2022-11-25T20:56:30.239Z,8.10
2022-11-25T20:59:01.120Z,10.20
2022-11-25T21:01:31.901Z,8.90
2022-11-25T21:04:00.234Z,9.50
2022-11-25T21:06:31.153Z,8.50
2022-11-25T21:11:33.212Z,8.50
2022-11-25T21:14:01.902Z,9.90
2022-11-25T21:16:30.279Z,9.90
2022-11-25T21:18:58.513Z,10.10
2022-11-25T21:21:33.490Z,8.00
2022-11-25T21:24:10.497Z,8.20
2022-11-25T21:26:45.122Z,9.10
2022-11-25T21:29:22.710Z,9.50
2022-11-25T21:31:54.521Z,11.70
2022-11-25T21:34:23.170Z,10.70
2022-11-25T21:36:53.354Z,13.60
2022-11-25T21:39:34.137Z,13.50
2022-11-25T21:42:08.486Z,13.40
2022-11-25T21:44:39.840Z,12.90
2022-11-25T21:47:16.228Z,12.30
2022-11-25T21:49:44.933Z,12.70
2022-11-25T21:52:14.862Z,11.10
2022-11-25T21:54:43.720Z,14.30
2022-11-25T21:57:17.361Z,12.20
2022-11-25T21:59:47.047Z,11.60
2022-11-25T22:02:21.584Z,11.50
2022-11-25T22:04:50.737Z,12.60
2022-11-25T22:07:19.165Z,13.00
2022-11-25T22:09:47.458Z,12.10
2022-11-25T22:12:30.567Z,11.80
2022-11-25T22:15:00.902Z,11.10
2022-11-25T22:17:30.087Z,10.30
2022-11-25T22:19:59.077Z,11.40
2022-11-25T22:22:27.849Z,12.20
2022-11-25T22:24:56.220Z,12.20
2022-11-25T22:27:36.575Z,12.10
2022-11-25T22:30:06.148Z,14.90
2022-11-25T22:32:34.437Z,14.70
2022-11-25T22:35:02.714Z,12.10
2022-11-25T22:37:31.535Z,12.20
2022-11-25T22:39:59.809Z,10.50
2022-11-25T22:42:31.539Z,10.30
2022-11-25T22:45:02.411Z,10.90
2022-11-25T22:47:45.923Z,9.80
2022-11-25T22:50:22.167Z,10.00
2022-11-25T22:52:52.090Z,9.80
2022-11-25T22:55:23.645Z,11.00
2022-11-25T22:57:54.965Z,10.10
2022-11-25T23:00:26.991Z,13.00
2022-11-25T23:02:57.059Z,9.70
2022-11-25T23:05:33.389Z,8.90
2022-11-25T23:08:14.018Z,11.20
2022-11-25T23:10:42.846Z,8.90
2022-11-25T23:13:18.684Z,9.50
2022-11-25T23:15:56.113Z,8.90
2022-11-25T23:18:38.444Z,11.20
2022-11-25T23:21:17.107Z,10.10
2022-11-25T23:23:45.863Z,8.50
2022-11-25T23:26:14.754Z,10.80
2022-11-25T23:28:43.066Z,8.90
2022-11-25T23:31:16.076Z,8.60
2022-11-25T23:33:50.437Z,9.80
2022-11-25T23:36:29.698Z,8.10
2022-11-25T23:39:01.261Z,9.90
2022-11-25T23:41:33.126Z,10.00
2022-11-25T23:44:21.604Z,8.30
2022-11-25T23:46:51.300Z,10.30
2022-11-25T23:49:41.490Z,9.70
2022-11-25T23:52:14.708Z,9.20
2022-11-25T23:54:45.626Z,9.10
2022-11-25T23:59:53.054Z,11.00
